Eyrarbakki, Islandia

2:47 AM GMT en Octubre 25, 2014 (GMT +0000)
Reykjavik | Change Station
CLOSE
Current Station
Aeropuerto
Location: Reykjavik,
Altura: 39 ft
Estaciones meteorológicas cercanas

Alt 39 ft 64.13 °N, 21.94 °W | Updated 47 minutes ago

Light Snow Showers
Aguanieve débil
34 ° F
Sensación térmica 25 ° F
N
12
Viento Variable Viento desde ENE

Hoy
Alta -- | Baja -- ° F
--% Posibilidad de precipitaciones
Ayer
Alta -- | Baja -- ° F
Precip. -- pul
8:43 AM 5:32 PM
Luna nueva, 2% visible
Presión 28.91 pul
Visibilidad 6.2 Millas
Nubes Baja 3000 ft
Nubes dispersas 3800 ft
Vientos helados 25 ° F
Punto de rocío 28 ° F
Humedad 81%
Precipitaciones 0.00 pul
Espesor de la nieve No disponible.
UV 0 de una escala de 12
Polen No disponible.
Calidad del aire No disponible.
Flu Activity No disponible.
METAR BIRK 250200Z 07010KT 9999 -SHSN FEW030 SCT038 01/M02 Q0979

More Conditions Fewer Conditions

Presión 28.91 pul
Visibilidad 6.2 Millas
Nubes Baja 3000 ft
Nubes dispersas 3800 ft
Vientos helados 25 ° F
Punto de rocío 28 ° F
Humedad 81%
Precipitaciones 0.00 pul
Espesor de la nieve No disponible.
UV 0 de una escala de 12
Polen No disponible.
Calidad del aire No disponible.
Flu Activity No disponible.
METAR BIRK 250200Z 07010KT 9999 -SHSN FEW030 SCT038 01/M02 Q0979

More Conditions Fewer Conditions

10-Day Weather Forecast

Almanac

Astronomía

Oct. 25, 2014 Salida Puesta
Hora real 8:43 AM GMT 5:32 PM GMT
Crepúsculo civil 7:53 AM GMT 6:22 PM GMT
Crepúsculo náutico 6:58 AM GMT 7:17 PM GMT
Crepúsculo astronómico 6:03 AM GMT 8:12 PM GMT
Luna 10:38 AM GMT 6:15 PM GMT
Horas de luz 10h 28m
Horas de luz
8h 48m
Tomorrow will be 6m 24s shorter.
Luna nueva, 2% of the Moon is Illuminated
Oct 24
Luna nueva
Oct 30
Cuarto creciente
Nov 6
Luna llena
Nov 14
Cuarto menguante
Nov 22
Nueva

Extremos de ayer

Máximos del país Bajas del país

Community

WunderPhotos

Upload Photos

1,764,760 ¡fotos cargadas!

Nearby

Calidad del aire

Not available.

Grosos de nieve

Not available.

Actividad de terremotos

Ciudad Distance Mag. Tiempo y dato
No hay informes recientes de la actividad sísmica.
Magnitud mínima muestra es 2,5.

Temperaturas de aguas costeras

Lugar Temperatura
Sin partes meteorológicos de las estaciones

Estaciones meteorológicas cercanas